Time;durP1;ratioP1;P1;durP2;ratioP2;P2;SDS_P1;SDS_P2;PMS_P1;PMS_P2;Temp;Humidity;BMP_temperature;BMP_pressure;BME280_temperature;BME280_humidity;BME280_pressure;Samples;Min_cycle;Max_cycle;Signal;HPM_P1;HPM_P2
2022/08/31 00:04:56;;;;;;;8.33;6.75;;;;;;;17.58;81.86;99316.84;1744294;82;21015;-71
2022/08/31 00:07:23;;;;;;;8.50;6.22;;;;;;;17.56;82.14;99324.84;1749545;82;20983;-71
2022/08/31 00:09:50;;;;;;;8.40;5.78;;;;;;;17.52;81.54;99322.06;1749761;82;20964;-71
2022/08/31 00:12:18;;;;;;;7.17;6.30;;;;;;;17.50;80.98;99326.59;1749471;82;21110;-71
2022/08/31 00:14:47;;;;;;;10.45;7.40;;;;;;;17.47;81.24;99320.70;1749385;82;20996;-71
2022/08/31 00:17:15;;;;;;;7.65;6.62;;;;;;;17.43;81.74;99332.38;1749387;81;21050;-71
2022/08/31 00:19:42;;;;;;;10.75;5.55;;;;;;;17.38;81.40;99326.16;1749495;81;20996;-71
2022/08/31 00:22:08;;;;;;;6.80;6.10;;;;;;;17.37;81.73;99324.95;1749431;82;20999;-71
2022/08/31 00:24:35;;;;;;;7.50;6.37;;;;;;;17.34;81.87;99332.59;1749412;81;21566;-71
2022/08/31 00:27:01;;;;;;;7.65;6.70;;;;;;;17.33;82.14;99324.80;1749386;82;21479;-71
2022/08/31 00:29:28;;;;;;;9.43;6.95;;;;;;;17.32;82.30;99325.75;1749382;81;20992;-71
2022/08/31 00:31:56;;;;;;;10.32;7.35;;;;;;;17.33;82.37;99326.12;1749457;81;20988;-71
2022/08/31 00:34:25;;;;;;;9.10;5.83;;;;;;;17.32;82.38;99320.50;1749508;82;20964;-71
2022/08/31 00:36:52;;;;;;;9.35;5.50;;;;;;;17.33;82.42;99323.02;1749421;81;21413;-71
2022/08/31 00:39:19;;;;;;;9.25;5.42;;;;;;;17.34;82.00;99317.28;1749399;82;20949;-71
2022/08/31 00:41:46;;;;;;;8.68;5.45;;;;;;;17.36;81.96;99321.96;1749412;82;21000;-71
2022/08/31 00:44:13;;;;;;;7.87;5.30;;;;;;;17.39;82.04;99326.97;1749389;82;20963;-72
2022/08/31 00:46:41;;;;;;;7.28;4.78;;;;;;;17.41;82.00;99331.66;1749599;81;21023;-71
2022/08/31 00:49:23;;;;;;;8.60;5.42;;;;;;;17.43;81.77;99333.22;1749390;81;21125;-71
2022/08/31 00:51:54;;;;;;;7.72;4.92;;;;;;;17.49;81.43;99333.27;1749438;81;21000;-71
2022/08/31 00:54:26;;;;;;;6.42;5.08;;;;;;;17.55;80.98;99338.94;1749470;81;20999;-72
2022/08/31 00:56:52;;;;;;;5.30;4.40;;;;;;;17.60;80.48;99332.48;1749347;82;20987;-72
2022/08/31 00:59:19;;;;;;;7.00;5.05;;;;;;;17.65;80.09;99334.34;1749426;82;21471;-71
2022/08/31 01:01:46;;;;;;;6.28;4.53;;;;;;;17.69;79.66;99331.86;1749504;82;21101;-71
2022/08/31 01:04:14;;;;;;;6.35;4.80;;;;;;;17.74;79.46;99337.16;1749371;81;21082;-71
2022/08/31 01:06:40;;;;;;;8.13;4.92;;;;;;;17.81;79.34;99340.16;1741608;81;21424;-71
2022/08/31 01:09:07;;;;;;;6.70;5.10;;;;;;;17.87;79.02;99343.19;1741314;82;21106;-71
2022/08/31 01:11:35;;;;;;;6.17;4.72;;;;;;;17.93;78.61;99335.33;1741421;82;21067;-71
2022/08/31 01:14:03;;;;;;;6.03;4.80;;;;;;;17.98;78.21;99332.36;1722744;82;21141;-72
2022/08/31 01:16:40;;;;;;;8.20;4.67;;;;;;;17.99;77.65;99325.64;1741323;82;20944;-72
2022/08/31 01:19:11;;;;;;;7.58;4.25;;;;;;;18.01;77.37;99330.80;1741435;82;20920;-70
2022/08/31 01:21:43;;;;;;;7.25;4.80;;;;;;;18.02;77.19;99333.80;1740220;82;21536;-70
2022/08/31 01:24:09;;;;;;;8.28;4.62;;;;;;;18.00;77.38;99332.59;1722625;82;21440;-70
2022/08/31 01:26:36;;;;;;;8.08;4.97;;;;;;;17.98;77.68;99329.26;1741392;82;21141;-70
2022/08/31 01:29:05;;;;;;;7.05;4.53;;;;;;;17.96;77.73;99330.32;1722831;82;20956;-70
2022/08/31 01:31:40;;;;;;;6.72;4.25;;;;;;;17.95;77.31;99333.43;1741336;82;20952;-71
2022/08/31 01:34:07;;;;;;;5.90;4.00;;;;;;;17.93;77.07;99331.37;1741359;82;21008;-71
2022/08/31 01:36:37;;;;;;;8.33;5.00;;;;;;;17.93;77.08;99337.96;1741435;82;21555;-71
2022/08/31 01:39:05;;;;;;;5.87;4.10;;;;;;;17.94;77.06;99341.43;1741330;82;21170;-71
2022/08/31 01:41:33;;;;;;;6.80;4.50;;;;;;;17.94;77.20;99342.27;1741283;82;20996;-70
2022/08/31 01:44:00;;;;;;;7.05;4.40;;;;;;;17.97;77.31;99340.73;1741317;82;21479;-71
2022/08/31 01:46:28;;;;;;;5.35;4.42;;;;;;;18.00;77.19;99337.01;1741308;82;20960;-70
2022/08/31 01:48:55;;;;;;;5.80;4.40;;;;;;;18.01;77.06;99338.22;1741378;82;21086;-70
2022/08/31 01:51:21;;;;;;;4.75;3.72;;;;;;;18.01;76.93;99334.27;1741388;82;21742;-71
2022/08/31 01:53:49;;;;;;;5.87;4.10;;;;;;;18.02;76.98;99334.62;1741688;82;20976;-70
2022/08/31 01:56:27;;;;;;;5.78;3.72;;;;;;;18.03;76.92;99332.36;1741269;82;21008;-70
2022/08/31 01:58:55;;;;;;;6.22;3.92;;;;;;;18.04;76.92;99332.73;1741324;82;21043;-71
2022/08/31 02:01:39;;;;;;;6.25;3.80;;;;;;;18.06;76.81;99332.14;1739757;82;21563;-71
2022/08/31 02:04:07;;;;;;;5.35;4.22;;;;;;;18.09;76.60;99327.13;1741302;82;21112;-71
2022/08/31 02:06:34;;;;;;;6.87;4.30;;;;;;;18.10;76.42;99332.28;1747481;82;21507;-71
2022/08/31 02:09:02;;;;;;;5.80;4.12;;;;;;;18.10;76.42;99325.70;1749455;81;20964;-70
2022/08/31 02:11:29;;;;;;;5.08;4.33;;;;;;;18.11;76.98;99323.91;1749537;82;20964;-70
2022/08/31 02:13:56;;;;;;;5.08;3.87;;;;;;;18.12;77.62;99317.69;1749483;82;21007;-70
2022/08/31 02:16:23;;;;;;;5.10;3.45;;;;;;;18.12;77.80;99316.38;1749633;82;21713;-70
2022/08/31 02:18:50;;;;;;;4.87;3.80;;;;;;;18.12;78.49;99317.22;1749743;82;20956;-71
2022/08/31 02:21:18;;;;;;;7.70;3.85;;;;;;;18.12;78.84;99316.38;1749515;82;20995;-71
2022/08/31 02:23:45;;;;;;;8.70;4.22;;;;;;;18.14;79.26;99307.89;1749498;82;21027;-71
2022/08/31 02:26:12;;;;;;;5.45;4.03;;;;;;;18.12;79.13;99309.33;1749578;82;20992;-70
2022/08/31 02:28:38;;;;;;;4.80;4.28;;;;;;;18.11;78.87;99310.27;1749429;81;21573;-70
2022/08/31 02:31:05;;;;;;;4.40;3.77;;;;;;;18.11;78.66;99311.59;1749431;81;21475;-70
2022/08/31 02:33:33;;;;;;;6.65;4.37;;;;;;;18.08;78.60;99310.50;1724308;82;21476;-70
2022/08/31 02:36:00;;;;;;;10.30;4.10;;;;;;;18.06;78.59;99315.03;1749451;82;20972;-70
2022/08/31 02:38:27;;;;;;;6.42;4.15;;;;;;;18.03;78.67;99313.95;1749656;81;20987;-70
2022/08/31 02:40:54;;;;;;;12.18;4.30;;;;;;;18.01;78.81;99313.69;1749422;82;21780;-70
2022/08/31 02:43:20;;;;;;;5.47;3.80;;;;;;;18.00;78.66;99312.85;1749393;82;20963;-70
2022/08/31 02:45:47;;;;;;;6.55;3.50;;;;;;;18.00;78.55;99319.91;1749511;82;21015;-71
2022/08/31 02:48:16;;;;;;;5.62;4.10;;;;;;;18.01;78.49;99324.22;1748982;81;21051;-71
2022/08/31 02:50:45;;;;;;;5.87;4.10;;;;;;;18.02;78.35;99321.47;1749459;81;21404;-71
2022/08/31 02:53:13;;;;;;;5.53;3.62;;;;;;;18.03;78.14;99323.16;1749502;82;21127;-71
2022/08/31 02:55:41;;;;;;;5.70;3.95;;;;;;;18.02;78.03;99318.84;1749366;82;20952;-71
2022/08/31 02:58:10;;;;;;;5.42;3.67;;;;;;;18.02;78.06;99324.58;1749475;82;20960;-71
2022/08/31 03:00:37;;;;;;;5.22;4.08;;;;;;;18.02;78.09;99328.53;1749474;82;20995;-71
2022/08/31 03:03:04;;;;;;;5.60;3.83;;;;;;;18.02;78.36;99324.10;1749476;82;21051;-71
2022/08/31 03:05:32;;;;;;;4.92;3.87;;;;;;;18.01;78.53;99324.22;1749341;82;21175;-71
2022/08/31 03:07:58;;;;;;;6.72;4.05;;;;;;;17.98;78.66;99321.84;1749392;82;21416;-70
2022/08/31 03:10:25;;;;;;;5.83;3.87;;;;;;;17.97;78.71;99324.95;1749490;82;21047;-71
2022/08/31 03:12:52;;;;;;;5.95;3.65;;;;;;;17.94;78.72;99323.02;1749526;82;20956;-71
2022/08/31 03:15:23;;;;;;;7.33;4.50;;;;;;;17.92;78.77;99327.07;1749506;81;20930;-71
2022/08/31 03:17:50;;;;;;;4.30;3.70;;;;;;;17.89;78.82;99326.81;1749498;82;21291;-70
2022/08/31 03:20:19;;;;;;;4.40;3.50;;;;;;;17.90;78.98;99322.39;1749395;82;20951;-70
2022/08/31 03:22:46;;;;;;;6.10;3.60;;;;;;;17.88;78.96;99325.14;1749403;82;21483;-70
2022/08/31 03:25:14;;;;;;;6.55;3.65;;;;;;;17.88;79.04;99324.30;1749471;82;20960;-70
2022/08/31 03:27:41;;;;;;;5.60;3.83;;;;;;;17.87;79.03;99333.14;1749475;82;20951;-71
2022/08/31 03:30:12;;;;;;;6.87;3.35;;;;;;;17.86;79.16;99329.67;1749453;82;21086;-71
2022/08/31 03:32:40;;;;;;;4.80;3.53;;;;;;;17.87;79.17;99325.25;1724559;82;20943;-71
2022/08/31 03:35:07;;;;;;;3.92;3.40;;;;;;;17.86;79.13;99324.88;1749418;81;20989;-71
2022/08/31 03:37:34;;;;;;;7.70;3.90;;;;;;;17.84;79.25;99331.57;1749482;82;21039;-71
2022/08/31 03:40:02;;;;;;;8.73;3.77;;;;;;;17.81;79.43;99323.90;1724137;82;20987;-71
2022/08/31 03:42:30;;;;;;;5.67;4.17;;;;;;;17.80;79.52;99328.80;1749424;82;21248;-71
2022/08/31 03:44:56;;;;;;;7.92;3.50;;;;;;;17.78;79.67;99330.73;1749370;81;21047;-71
2022/08/31 03:47:25;;;;;;;9.78;4.47;;;;;;;17.77;79.86;99331.67;1749172;81;20999;-71
2022/08/31 03:49:51;;;;;;;7.40;4.55;;;;;;;17.78;79.82;99335.14;1749440;82;21003;-71
2022/08/31 03:52:21;;;;;;;9.68;3.92;;;;;;;17.79;79.75;99331.53;1749549;81;21428;-71
2022/08/31 03:54:50;;;;;;;5.12;3.60;;;;;;;17.79;79.64;99331.06;1748463;81;21217;-71
2022/08/31 03:57:17;;;;;;;6.75;3.83;;;;;;;17.78;79.62;99326.78;1749429;82;21026;-71
2022/08/31 03:59:43;;;;;;;9.50;4.10;;;;;;;17.77;79.49;99335.63;1749385;82;20996;-71
2022/08/31 04:02:19;;;;;;;5.45;3.55;;;;;;;17.79;79.46;99335.48;1749397;82;20938;-70
2022/08/31 04:05:06;;;;;;;8.43;3.98;;;;;;;17.81;79.67;99334.89;1749599;82;21066;-71
2022/08/31 04:07:41;;;;;;;4.85;3.67;;;;;;;17.82;79.71;99339.20;1749474;82;21144;-71
2022/08/31 04:10:28;;;;;;;5.60;4.40;;;;;;;17.86;79.70;99345.93;1749319;81;20992;-71
2022/08/31 04:13:13;;;;;;;5.12;3.60;;;;;;;17.86;79.93;99353.83;1749526;82;20947;-71
2022/08/31 04:16:00;;;;;;;4.83;3.45;;;;;;;17.86;80.19;99348.56;1745880;82;20996;-71
2022/08/31 04:18:46;;;;;;;6.05;3.40;;;;;;;17.84;79.88;99346.04;1749499;81;21019;-71
2022/08/31 04:21:16;;;;;;;5.65;3.42;;;;;;;17.86;79.88;99349.88;1749479;82;21146;-70
2022/08/31 04:23:43;;;;;;;4.95;3.55;;;;;;;17.86;79.78;99348.09;1748484;82;21439;-70
2022/08/31 04:26:22;;;;;;;4.53;3.30;;;;;;;17.88;79.88;99346.66;1749398;82;20999;-71
2022/08/31 04:28:48;;;;;;;7.92;3.60;;;;;;;17.89;79.48;99343.08;1748683;81;21488;-70
2022/08/31 04:31:15;;;;;;;5.08;3.67;;;;;;;17.90;79.41;99350.86;1749536;82;20995;-70
2022/08/31 04:33:42;;;;;;;3.40;3.10;;;;;;;17.89;79.33;99347.87;1749396;82;21119;-70
2022/08/31 04:36:12;;;;;;;4.55;3.40;;;;;;;17.89;79.55;99349.66;1749350;82;21014;-70
2022/08/31 04:38:42;;;;;;;7.97;4.30;;;;;;;17.88;79.67;99346.19;1749377;81;21080;-71
2022/08/31 04:41:11;;;;;;;5.33;3.75;;;;;;;17.90;79.98;99350.02;1749788;81;21417;-71
2022/08/31 04:43:39;;;;;;;10.80;5.97;;;;;;;17.93;79.87;99353.75;1749594;81;21011;-71
2022/08/31 04:46:07;;;;;;;13.48;6.17;;;;;;;17.97;79.93;99355.69;1749533;82;21750;-71
2022/08/31 04:48:34;;;;;;;10.25;4.67;;;;;;;18.01;80.02;99363.69;1749472;81;21904;-71
2022/08/31 04:51:08;;;;;;;6.47;4.62;;;;;;;18.03;80.03;99370.52;1749555;81;20972;-71
2022/08/31 04:53:35;;;;;;;7.03;3.65;;;;;;;18.08;79.98;99368.87;1749228;82;21043;-71
2022/08/31 04:56:13;;;;;;;9.33;4.85;;;;;;;18.11;79.37;99362.08;1749581;81;20994;-71
2022/08/31 04:58:37;;;;;;;9.25;4.97;;;;;;;18.13;79.31;99366.28;1749158;82;21886;-71
2022/08/31 05:01:05;;;;;;;6.53;4.78;;;;;;;18.17;79.17;99369.05;1748846;82;20944;-72
2022/08/31 05:03:51;;;;;;;6.87;4.42;;;;;;;18.21;78.93;99367.84;1679265;83;21074;-72
2022/08/31 05:06:20;;;;;;;7.17;4.22;;;;;;;18.27;78.97;99365.24;1718978;83;21109;-72
2022/08/31 05:08:55;;;;;;;9.33;4.58;;;;;;;18.32;78.87;99368.86;1698469;84;21556;-72
2022/08/31 05:11:23;;;;;;;5.80;4.83;;;;;;;18.36;78.74;99372.47;1677997;85;21244;-72
2022/08/31 05:13:55;;;;;;;12.20;5.50;;;;;;;18.40;78.72;99378.31;1684291;84;21006;-71
2022/08/31 05:16:24;;;;;;;12.82;6.50;;;;;;;18.45;78.35;99377.50;1740308;82;21037;-72
2022/08/31 05:18:52;;;;;;;12.80;5.92;;;;;;;18.49;78.05;99376.32;1740823;82;21089;-71
2022/08/31 05:21:28;;;;;;;12.40;6.20;;;;;;;18.56;78.08;99368.33;1741154;82;21050;-72
2022/08/31 05:24:00;;;;;;;12.65;7.92;;;;;;;18.66;77.98;99373.75;1740695;82;21138;-72
2022/08/31 05:26:32;;;;;;;11.15;7.30;;;;;;;18.75;77.77;99373.91;1736496;82;21010;-73
2022/08/31 05:29:01;;;;;;;14.35;8.23;;;;;;;18.84;77.47;99369.23;1719774;83;20993;-72
2022/08/31 05:31:30;;;;;;;8.58;7.30;;;;;;;18.96;77.08;99374.05;1707793;82;21043;-72
2022/08/31 05:33:59;;;;;;;8.85;6.50;;;;;;;19.10;76.92;99369.86;1689075;83;21204;-73
2022/08/31 05:36:31;;;;;;;9.68;6.17;;;;;;;19.24;76.05;99370.92;1696395;84;21160;-72
2022/08/31 05:39:08;;;;;;;16.00;8.35;;;;;;;19.38;75.52;99370.33;1679484;84;21593;-72
2022/08/31 05:41:37;;;;;;;9.05;7.05;;;;;;;19.51;75.18;99365.30;1668206;84;21036;-73
2022/08/31 05:44:08;;;;;;;7.28;5.58;;;;;;;19.64;74.30;99369.58;1681451;84;37987;-73
2022/08/31 05:46:38;;;;;;;9.38;5.20;;;;;;;19.67;73.74;99371.50;1697713;82;21572;-73
2022/08/31 05:49:06;;;;;;;7.67;5.42;;;;;;;19.70;73.49;99377.86;1701353;82;21247;-73
2022/08/31 05:51:35;;;;;;;9.03;5.40;;;;;;;19.74;73.33;99377.13;1719606;83;21043;-73
2022/08/31 05:54:02;;;;;;;7.03;4.62;;;;;;;19.79;73.25;99381.05;1719421;83;21013;-72
2022/08/31 05:56:30;;;;;;;11.93;7.47;;;;;;;19.86;72.46;99382.73;1717315;82;21070;-73
2022/08/31 05:58:57;;;;;;;4.47;3.50;;;;;;;19.90;72.57;99386.32;1659247;84;21014;-72
2022/08/31 06:01:30;;;;;;;4.80;3.10;;;;;;;19.97;71.79;99384.03;1709515;83;22345;-72
2022/08/31 06:04:12;;;;;;;7.65;3.00;;;;;;;20.01;71.34;99386.75;1662389;86;21116;-73
2022/08/31 06:06:40;;;;;;;5.75;2.98;;;;;;;20.06;71.12;99381.94;1721088;83;21179;-71
2022/08/31 06:09:07;;;;;;;7.92;2.92;;;;;;;20.11;70.61;99378.94;1707265;83;21076;-72
2022/08/31 06:11:37;;;;;;;7.72;5.87;;;;;;;20.14;70.65;99390.09;1691091;83;21058;-72
2022/08/31 06:14:04;;;;;;;3.67;3.00;;;;;;;20.19;70.28;99380.44;1691710;84;21796;-71
2022/08/31 06:16:34;;;;;;;6.97;2.85;;;;;;;20.24;69.94;99380.91;1703041;83;20996;-72
2022/08/31 06:19:03;;;;;;;2.67;2.47;;;;;;;20.30;69.06;99377.28;1706685;83;21108;-71
2022/08/31 06:21:33;;;;;;;4.00;2.58;;;;;;;20.34;68.76;99379.20;1705506;83;21041;-71
2022/08/31 06:24:03;;;;;;;7.58;2.27;;;;;;;20.39;68.46;99380.98;1699485;83;20958;-71
2022/08/31 06:26:32;;;;;;;3.70;2.40;;;;;;;20.46;68.27;99390.08;1711514;83;21288;-71
2022/08/31 06:29:01;;;;;;;3.60;2.90;;;;;;;20.51;67.76;99380.45;1704486;83;21033;-71
2022/08/31 06:31:45;;;;;;;2.80;2.50;;;;;;;20.54;67.33;99381.52;1715594;83;21002;-72
2022/08/31 06:34:09;;;;;;;6.25;2.58;;;;;;;20.57;67.50;99379.47;1715708;83;21034;-71
2022/08/31 06:36:50;;;;;;;5.72;2.80;;;;;;;20.66;67.33;99379.64;1710883;83;21014;-71
2022/08/31 06:39:45;;;;;;;6.25;2.10;;;;;;;20.73;66.91;99386.94;1708763;83;21892;-72
2022/08/31 06:42:20;;;;;;;3.42;2.17;;;;;;;20.80;66.68;99381.95;1651662;86;21078;-72
2022/08/31 06:44:57;;;;;;;3.90;2.17;;;;;;;20.90;66.50;99383.70;1710856;83;21080;-71
2022/08/31 06:47:43;;;;;;;6.08;2.70;;;;;;;20.99;66.24;99388.66;1668249;84;21056;-71
2022/08/31 06:50:12;;;;;;;3.20;2.42;;;;;;;21.06;65.75;99387.66;1668947;84;21068;-72
2022/08/31 06:52:42;;;;;;;3.80;2.58;;;;;;;21.13;65.34;99387.50;1697232;83;21630;-72
2022/08/31 06:55:37;;;;;;;3.47;2.60;;;;;;;21.20;65.54;99394.78;1705351;83;21206;-71
2022/08/31 06:58:23;;;;;;;5.83;2.70;;;;;;;21.32;65.08;99390.25;1709821;83;21514;-72
2022/08/31 07:01:17;;;;;;;3.77;2.45;;;;;;;21.44;65.10;99387.01;1658684;85;21080;-73
2022/08/31 07:03:49;;;;;;;4.08;1.87;;;;;;;21.56;64.13;99382.82;1643692;86;21088;-74
2022/08/31 07:06:20;;;;;;;4.12;2.00;;;;;;;21.62;63.83;99377.45;1654387;84;21153;-75
2022/08/31 07:08:55;;;;;;;2.50;2.30;;;;;;;21.69;63.48;99377.75;1726767;83;21053;-72
2022/08/31 07:11:40;;;;;;;4.75;2.90;;;;;;;21.75;63.23;99375.41;1748328;81;20992;-73
2022/08/31 07:14:12;;;;;;;8.05;2.60;;;;;;;21.82;62.94;99378.32;1764117;80;21041;-73
2022/08/31 07:16:42;;;;;;;4.22;2.02;;;;;;;21.94;62.64;99379.41;1747194;81;21042;-73
2022/08/31 07:19:10;;;;;;;3.83;2.20;;;;;;;22.07;62.25;99370.38;1755245;81;21168;-73
2022/08/31 07:21:55;;;;;;;4.10;2.12;;;;;;;22.17;60.06;99370.74;1742517;82;21046;-72
2022/08/31 07:24:30;;;;;;;4.55;1.87;;;;;;;22.21;59.61;99369.95;1684843;84;21131;-74
2022/08/31 07:27:08;;;;;;;2.00;1.70;;;;;;;22.23;58.71;99368.00;1719476;83;21051;-72
2022/08/31 07:29:45;;;;;;;2.20;1.87;;;;;;;22.27;57.14;99369.40;1702351;84;20994;-73
2022/08/31 07:32:14;;;;;;;4.12;1.95;;;;;;;22.32;56.45;99367.17;1699474;84;21738;-72
2022/08/31 07:34:42;;;;;;;2.25;1.20;;;;;;;22.39;54.81;99370.91;1687499;84;21572;-73
2022/08/31 07:42:46;;;;;;;4.45;2.25;;;;;;;22.78;50.78;99364.28;1716225;83;21038;-73
2022/08/31 07:45:20;;;;;;;4.40;1.42;;;;;;;22.92;51.77;99369.95;1672609;84;21293;-74
2022/08/31 07:47:51;;;;;;;4.72;1.67;;;;;;;23.00;49.90;99363.42;1678038;85;21037;-74
2022/08/31 07:50:20;;;;;;;1.85;1.57;;;;;;;23.06;48.47;99365.16;1716213;83;21019;-72
2022/08/31 07:52:56;;;;;;;3.52;1.77;;;;;;;23.10;48.82;99362.07;1715636;83;21476;-75
2022/08/31 07:55:28;;;;;;;2.05;1.80;;;;;;;23.10;49.22;99361.23;1680039;84;22073;-73
2022/08/31 07:57:57;;;;;;;2.83;1.87;;;;;;;23.08;48.95;99363.20;1669047;85;21177;-73
2022/08/31 08:00:27;;;;;;;1.72;1.62;;;;;;;23.06;49.18;99365.98;1669512;85;21096;-73
2022/08/31 08:03:00;;;;;;;1.52;1.42;;;;;;;23.04;48.19;99365.30;1694478;84;21620;-74
2022/08/31 08:05:26;;;;;;;3.85;1.98;;;;;;;23.07;46.61;99358.38;1678680;84;21065;-71
2022/08/31 08:07:58;;;;;;;3.55;1.60;;;;;;;23.15;47.01;99356.34;1660405;85;21090;-71
2022/08/31 08:10:32;;;;;;;1.87;1.72;;;;;;;23.30;46.06;99357.52;1669393;85;21023;-70
2022/08/31 08:13:04;;;;;;;3.50;1.60;;;;;;;23.45;45.47;99349.89;1667690;85;27035;-71
2022/08/31 08:15:36;;;;;;;4.12;3.42;;;;;;;23.60;44.95;99349.27;1662965;85;21188;-71
2022/08/31 08:18:12;;;;;;;10.95;8.05;;;;;;;23.75;44.58;99344.30;1651755;85;21018;-71
2022/08/31 08:20:40;;;;;;;3.27;2.72;;;;;;;23.87;45.24;99344.41;1660893;85;22060;-72
2022/08/31 08:23:11;;;;;;;6.25;3.40;;;;;;;23.97;43.94;99346.52;1688161;83;21122;-71
2022/08/31 08:25:47;;;;;;;3.47;1.95;;;;;;;24.01;43.91;99335.06;1655735;86;21589;-72
2022/08/31 08:28:19;;;;;;;5.28;1.98;;;;;;;24.12;44.28;99343.31;1658216;86;21834;-71
2022/08/31 08:30:49;;;;;;;6.37;1.77;;;;;;;24.23;44.28;99335.92;1722530;83;21104;-73
2022/08/31 08:33:18;;;;;;;2.95;2.20;;;;;;;24.33;44.98;99346.52;1725567;82;21486;-72
2022/08/31 08:35:45;;;;;;;5.85;4.17;;;;;;;24.35;44.63;99338.73;1737160;82;21522;-72
2022/08/31 08:38:12;;;;;;;2.35;2.00;;;;;;;24.32;44.38;99339.53;1728850;82;21072;-72
2022/08/31 08:40:41;;;;;;;4.80;2.17;;;;;;;24.29;44.13;99331.86;1736269;82;21065;-72
2022/08/31 08:43:15;;;;;;;5.45;2.10;;;;;;;24.30;44.33;99333.53;1737080;82;21065;-70
2022/08/31 08:45:47;;;;;;;3.47;1.70;;;;;;;24.31;44.06;99334.70;1737078;82;21022;-71
2022/08/31 08:48:16;;;;;;;3.70;1.62;;;;;;;24.31;44.21;99329.88;1737568;82;21245;-70
2022/08/31 08:50:43;;;;;;;1.52;1.42;;;;;;;24.34;43.88;99329.09;1736844;82;21597;-70
2022/08/31 08:53:11;;;;;;;1.87;1.62;;;;;;;24.44;43.76;99321.00;1735909;82;21525;-71
2022/08/31 08:55:42;;;;;;;2.50;1.50;;;;;;;24.56;43.40;99326.92;1710742;82;21008;-74
2022/08/31 08:58:10;;;;;;;4.53;2.30;;;;;;;24.71;42.41;99312.05;1736555;82;21081;-74
2022/08/31 09:00:41;;;;;;;3.67;2.60;;;;;;;24.76;42.83;99315.58;1734158;82;21109;-75
2022/08/31 09:03:43;;;;;;;2.08;1.65;;;;;;;24.72;43.35;99314.55;1736514;82;21021;-73
2022/08/31 09:06:53;;;;;;;4.47;2.12;;;;;;;24.68;43.52;99307.04;1732173;82;21100;-73
2022/08/31 09:09:35;;;;;;;2.50;1.70;;;;;;;24.66;43.99;99308.52;1728557;82;21089;-74
2022/08/31 09:12:25;;;;;;;3.45;1.52;;;;;;;24.67;43.84;99307.53;1729492;83;21030;-74
2022/08/31 09:15:34;;;;;;;3.92;1.90;;;;;;;24.76;43.19;99302.27;1729252;83;21523;-74
2022/08/31 09:18:14;;;;;;;3.75;1.90;;;;;;;24.87;43.55;99304.16;1721139;82;20999;-74
2022/08/31 09:21:03;;;;;;;8.05;2.83;;;;;;;24.98;40.88;99310.55;1714425;83;21063;-74
2022/08/31 09:23:40;;;;;;;2.05;1.50;;;;;;;25.00;41.10;99305.06;1721511;82;21167;-75
2022/08/31 09:26:08;;;;;;;4.33;1.50;;;;;;;25.02;41.24;99301.26;1696483;83;21547;-75
2022/08/31 09:28:54;;;;;;;2.00;1.72;;;;;;;25.02;40.92;99309.73;1713106;82;21352;-73
2022/08/31 09:31:36;;;;;;;2.62;1.92;;;;;;;24.85;41.05;99309.29;1738824;82;22119;-73
2022/08/31 09:34:11;;;;;;;1.75;1.57;;;;;;;24.66;41.12;99299.70;1716732;82;21538;-73
2022/08/31 09:36:39;;;;;;;8.23;3.70;;;;;;;24.51;41.82;99306.60;1732268;82;21481;-73
2022/08/31 09:39:15;;;;;;;2.02;1.82;;;;;;;24.46;42.24;99303.57;1744061;82;21489;-74
2022/08/31 09:41:42;;;;;;;2.87;1.90;;;;;;;24.47;42.16;99298.10;1717300;82;21170;-74
2022/08/31 09:44:34;;;;;;;1.42;1.32;;;;;;;24.51;42.13;99290.16;1737949;82;21014;-74
2022/08/31 09:47:05;;;;;;;1.95;1.50;;;;;;;24.58;41.45;99296.50;1737513;82;21557;-74
2022/08/31 09:49:36;;;;;;;2.67;1.70;;;;;;;24.65;41.77;99297.55;1717166;82;21080;-75
2022/08/31 09:55:18;;;;;;;4.10;1.60;;;;;;;24.92;41.78;99294.38;1716882;83;21958;-74
2022/08/31 09:57:58;;;;;;;5.65;1.80;;;;;;;25.10;41.47;99287.16;1716488;83;21119;-75
2022/08/31 10:00:40;;;;;;;3.08;1.30;;;;;;;25.21;41.62;99282.86;1707150;82;21054;-73
2022/08/31 10:03:20;;;;;;;2.90;1.15;;;;;;;25.22;41.47;99293.85;1704154;83;21026;-75
2022/08/31 10:05:49;;;;;;;1.55;1.00;;;;;;;25.13;41.09;99288.67;1703619;83;21370;-75
2022/08/31 10:08:39;;;;;;;3.45;1.50;;;;;;;25.04;41.29;99285.97;1710495;82;21265;-75
2022/08/31 10:11:16;;;;;;;1.65;1.17;;;;;;;25.03;40.98;99285.63;1722029;83;21501;-74
2022/08/31 10:13:53;;;;;;;5.35;1.20;;;;;;;25.02;40.54;99282.63;1721127;83;21040;-73
2022/08/31 10:16:41;;;;;;;1.47;1.37;;;;;;;24.99;40.19;99276.79;1725921;82;20986;-74
2022/08/31 10:19:27;;;;;;;2.85;1.20;;;;;;;24.91;40.05;99276.74;1738017;82;20999;-75
2022/08/31 10:21:58;;;;;;;4.72;1.37;;;;;;;24.91;40.30;99256.30;1744036;82;21249;-76
2022/08/31 10:24:45;;;;;;;3.20;1.60;;;;;;;24.99;40.63;99276.79;1739651;81;21077;-75
2022/08/31 10:27:31;;;;;;;2.10;1.52;;;;;;;25.05;41.01;99270.84;1739941;81;21081;-75
2022/08/31 10:30:08;;;;;;;1.75;1.00;;;;;;;25.14;40.21;99270.38;1738564;81;21007;-75
2022/08/31 10:32:47;;;;;;;3.45;1.05;;;;;;;25.21;39.82;99273.55;1732080;81;21046;-74
2022/08/31 10:35:25;;;;;;;1.10;0.98;;;;;;;25.33;40.21;99273.61;1729700;82;21149;-74
2022/08/31 10:38:25;;;;;;;4.62;1.25;;;;;;;25.44;39.68;99271.62;1716177;81;21047;-75
2022/08/31 10:41:18;;;;;;;5.05;1.27;;;;;;;25.49;39.02;99262.16;1747943;81;21009;-73
2022/08/31 10:44:23;;;;;;;1.27;1.05;;;;;;;25.34;38.41;99275.27;1751391;81;20992;-73
2022/08/31 10:46:46;;;;;;;2.08;1.45;;;;;;;25.22;38.29;99261.91;1722815;81;21050;-74
2022/08/31 10:49:13;;;;;;;3.25;1.55;;;;;;;25.11;38.45;99260.05;1747199;81;22201;-73
2022/08/31 10:52:05;;;;;;;2.95;1.35;;;;;;;25.15;39.02;99256.08;1745236;82;21027;-74
2022/08/31 10:54:53;;;;;;;1.15;0.93;;;;;;;25.26;38.36;99260.59;1745564;82;21601;-75
2022/08/31 10:57:54;;;;;;;0.80;0.80;;;;;;;25.36;38.60;99257.31;1751615;81;21011;-74
2022/08/31 11:00:44;;;;;;;3.92;1.20;;;;;;;25.35;37.11;99256.97;1751774;81;21551;-73
2022/08/31 11:03:43;;;;;;;1.32;1.10;;;;;;;25.25;36.84;99259.42;1735982;81;21376;-74
2022/08/31 11:06:34;;;;;;;4.00;1.00;;;;;;;25.26;38.03;99261.93;1734423;82;21473;-73
2022/08/31 11:09:17;;;;;;;1.07;1.00;;;;;;;25.37;37.78;99243.00;1727029;82;21058;-73
2022/08/31 11:12:05;;;;;;;3.47;1.12;;;;;;;25.48;37.94;99237.85;1713803;83;21257;-74
2022/08/31 11:14:57;;;;;;;1.70;0.70;;;;;;;25.63;37.92;99238.89;1724253;82;21502;-74
2022/08/31 11:17:50;;;;;;;2.12;0.82;;;;;;;25.80;37.80;99241.56;1713377;83;21147;-74
2022/08/31 11:20:38;;;;;;;1.95;1.00;;;;;;;25.86;36.36;99244.41;1714309;83;21000;-74
2022/08/31 11:23:40;;;;;;;3.67;1.30;;;;;;;25.81;36.92;99240.06;1729568;82;21027;-74
2022/08/31 11:26:30;;;;;;;1.10;1.00;;;;;;;25.88;37.23;99230.92;1738928;82;21059;-74
2022/08/31 11:29:17;;;;;;;0.80;0.70;;;;;;;26.03;37.27;99227.41;1736795;82;21521;-73
2022/08/31 11:31:53;;;;;;;2.58;1.15;;;;;;;26.20;37.06;99224.72;1736305;82;22026;-73
2022/08/31 11:34:31;;;;;;;1.90;1.40;;;;;;;26.32;36.83;99222.08;1726456;82;21565;-74
2022/08/31 11:37:03;;;;;;;3.77;1.27;;;;;;;26.29;37.38;99227.71;1736660;82;21088;-73
2022/08/31 11:39:34;;;;;;;1.47;1.10;;;;;;;26.08;38.25;99226.91;1735348;82;21073;-76
2022/08/31 11:42:21;;;;;;;0.85;0.68;;;;;;;25.87;38.29;99224.76;1737365;82;21113;-76
2022/08/31 11:45:07;;;;;;;1.12;1.05;;;;;;;25.69;38.38;99215.60;1728150;82;21166;-75
2022/08/31 11:47:37;;;;;;;1.15;1.07;;;;;;;25.67;39.25;99219.42;1660556;85;21022;-75
2022/08/31 11:50:24;;;;;;;2.45;1.12;;;;;;;25.74;39.29;99212.45;1727194;82;21084;-75
2022/08/31 11:52:52;;;;;;;1.40;1.17;;;;;;;25.83;39.45;99221.25;1657558;84;21007;-75
2022/08/31 11:55:25;;;;;;;2.67;1.00;;;;;;;25.87;39.13;99219.92;1730561;82;21046;-75
2022/08/31 11:58:06;;;;;;;3.85;1.10;;;;;;;25.80;39.58;99227.74;1719102;82;21224;-77
2022/08/31 12:01:08;;;;;;;1.20;1.10;;;;;;;25.64;40.22;99226.41;1696647;83;21101;-75
2022/08/31 12:03:44;;;;;;;1.95;1.00;;;;;;;25.48;41.49;99222.38;1718784;83;21018;-75
2022/08/31 12:06:32;;;;;;;4.92;1.20;;;;;;;25.39;40.55;99221.52;1719085;82;21021;-75
2022/08/31 12:09:41;;;;;;;5.75;1.20;;;;;;;25.30;41.13;99230.00;1729920;81;21041;-75
2022/08/31 12:12:38;;;;;;;1.50;1.12;;;;;;;25.13;40.80;99228.80;1739848;81;21456;-75
2022/08/31 12:15:24;;;;;;;4.22;1.70;;;;;;;24.97;42.13;99222.44;1736287;81;22079;-72
2022/08/31 12:18:18;;;;;;;2.15;0.88;;;;;;;25.08;41.30;99223.12;1733504;81;21000;-72